sensor_id;sensor_type;location;lat;lon;timestamp;P1;durP1;ratioP1;P2;durP2;ratioP2
20441;SDS011;10380;52.102;20.614;2023-11-21T00:00:03;24.17;;;12.50;;
20441;SDS011;10380;52.102;20.614;2023-11-21T00:02:37;24.67;;;12.47;;
20441;SDS011;10380;52.102;20.614;2023-11-21T00:05:10;22.63;;;11.73;;
20441;SDS011;10380;52.102;20.614;2023-11-21T00:07:39;19.43;;;11.73;;
20441;SDS011;10380;52.102;20.614;2023-11-21T00:10:07;20.67;;;12.20;;
20441;SDS011;10380;52.102;20.614;2023-11-21T00:12:36;22.33;;;12.17;;
20441;SDS011;10380;52.102;20.614;2023-11-21T00:15:04;22.77;;;12.50;;
20441;SDS011;10380;52.102;20.614;2023-11-21T00:17:32;23.63;;;12.17;;
20441;SDS011;10380;52.102;20.614;2023-11-21T00:19:59;18.83;;;11.13;;
20441;SDS011;10380;52.102;20.614;2023-11-21T00:22:26;21.97;;;12.23;;
20441;SDS011;10380;52.102;20.614;2023-11-21T00:24:53;21.03;;;11.77;;
20441;SDS011;10380;52.102;20.614;2023-11-21T00:27:20;21.90;;;12.97;;
20441;SDS011;10380;52.102;20.614;2023-11-21T00:29:47;25.00;;;12.20;;
20441;SDS011;10380;52.102;20.614;2023-11-21T00:32:14;20.23;;;12.53;;
20441;SDS011;10380;52.102;20.614;2023-11-21T00:34:42;21.53;;;13.37;;
20441;SDS011;10380;52.102;20.614;2023-11-21T00:37:09;21.30;;;11.33;;
20441;SDS011;10380;52.102;20.614;2023-11-21T00:39:36;24.50;;;12.70;;
20441;SDS011;10380;52.102;20.614;2023-11-21T00:42:03;19.83;;;11.50;;
20441;SDS011;10380;52.102;20.614;2023-11-21T00:44:31;20.67;;;11.97;;
20441;SDS011;10380;52.102;20.614;2023-11-21T00:46:58;18.30;;;11.63;;
20441;SDS011;10380;52.102;20.614;2023-11-21T00:49:25;18.70;;;11.17;;
20441;SDS011;10380;52.102;20.614;2023-11-21T00:51:52;25.30;;;12.13;;
20441;SDS011;10380;52.102;20.614;2023-11-21T00:54:19;19.47;;;11.27;;
20441;SDS011;10380;52.102;20.614;2023-11-21T00:56:47;22.20;;;12.60;;
20441;SDS011;10380;52.102;20.614;2023-11-21T00:59:14;21.70;;;11.73;;
20441;SDS011;10380;52.102;20.614;2023-11-21T01:01:41;20.83;;;12.00;;
20441;SDS011;10380;52.102;20.614;2023-11-21T01:04:08;21.70;;;11.60;;
20441;SDS011;10380;52.102;20.614;2023-11-21T01:06:35;23.67;;;12.03;;
20441;SDS011;10380;52.102;20.614;2023-11-21T01:09:02;23.27;;;11.83;;
20441;SDS011;10380;52.102;20.614;2023-11-21T01:11:34;21.33;;;12.67;;
20441;SDS011;10380;52.102;20.614;2023-11-21T01:14:03;23.10;;;12.37;;
20441;SDS011;10380;52.102;20.614;2023-11-21T01:16:31;24.63;;;12.83;;
20441;SDS011;10380;52.102;20.614;2023-11-21T01:19:00;22.57;;;12.63;;
20441;SDS011;10380;52.102;20.614;2023-11-21T01:21:28;20.13;;;12.30;;
20441;SDS011;10380;52.102;20.614;2023-11-21T01:23:56;21.90;;;12.87;;
20441;SDS011;10380;52.102;20.614;2023-11-21T01:26:23;22.83;;;11.40;;
20441;SDS011;10380;52.102;20.614;2023-11-21T01:28:50;19.83;;;10.87;;
20441;SDS011;10380;52.102;20.614;2023-11-21T01:31:17;22.40;;;12.73;;
20441;SDS011;10380;52.102;20.614;2023-11-21T01:33:46;20.03;;;12.37;;
20441;SDS011;10380;52.102;20.614;2023-11-21T01:36:13;20.43;;;13.30;;
20441;SDS011;10380;52.102;20.614;2023-11-21T01:38:40;22.00;;;13.33;;
20441;SDS011;10380;52.102;20.614;2023-11-21T01:41:08;25.93;;;13.17;;
20441;SDS011;10380;52.102;20.614;2023-11-21T01:43:37;22.17;;;12.67;;
20441;SDS011;10380;52.102;20.614;2023-11-21T01:46:05;24.03;;;13.77;;
20441;SDS011;10380;52.102;20.614;2023-11-21T01:48:32;22.30;;;13.27;;
20441;SDS011;10380;52.102;20.614;2023-11-21T01:51:01;22.07;;;13.87;;
20441;SDS011;10380;52.102;20.614;2023-11-21T01:53:28;22.43;;;13.27;;
20441;SDS011;10380;52.102;20.614;2023-11-21T01:55:56;20.67;;;13.43;;
20441;SDS011;10380;52.102;20.614;2023-11-21T01:58:24;19.27;;;13.30;;
20441;SDS011;10380;52.102;20.614;2023-11-21T02:00:51;22.33;;;13.37;;
20441;SDS011;10380;52.102;20.614;2023-11-21T02:03:21;24.40;;;13.70;;
20441;SDS011;10380;52.102;20.614;2023-11-21T02:05:48;23.63;;;14.63;;
20441;SDS011;10380;52.102;20.614;2023-11-21T02:08:15;29.00;;;14.73;;
20441;SDS011;10380;52.102;20.614;2023-11-21T02:10:42;29.07;;;15.30;;
20441;SDS011;10380;52.102;20.614;2023-11-21T02:13:10;30.07;;;15.40;;
20441;SDS011;10380;52.102;20.614;2023-11-21T02:15:37;28.07;;;15.80;;
20441;SDS011;10380;52.102;20.614;2023-11-21T02:18:05;29.43;;;16.20;;
20441;SDS011;10380;52.102;20.614;2023-11-21T02:20:33;29.33;;;17.00;;
20441;SDS011;10380;52.102;20.614;2023-11-21T02:23:01;28.93;;;17.23;;
20441;SDS011;10380;52.102;20.614;2023-11-21T02:25:29;33.27;;;16.10;;
20441;SDS011;10380;52.102;20.614;2023-11-21T02:27:59;30.10;;;17.47;;
20441;SDS011;10380;52.102;20.614;2023-11-21T02:30:27;26.93;;;16.47;;
20441;SDS011;10380;52.102;20.614;2023-11-21T02:32:54;33.50;;;18.30;;
20441;SDS011;10380;52.102;20.614;2023-11-21T02:35:23;31.07;;;17.93;;
20441;SDS011;10380;52.102;20.614;2023-11-21T02:37:54;33.07;;;15.53;;
20441;SDS011;10380;52.102;20.614;2023-11-21T02:40:22;33.33;;;17.63;;
20441;SDS011;10380;52.102;20.614;2023-11-21T02:42:51;32.77;;;18.47;;
20441;SDS011;10380;52.102;20.614;2023-11-21T02:45:21;38.00;;;18.27;;
20441;SDS011;10380;52.102;20.614;2023-11-21T02:47:48;31.63;;;17.23;;
20441;SDS011;10380;52.102;20.614;2023-11-21T02:50:16;31.73;;;18.10;;
20441;SDS011;10380;52.102;20.614;2023-11-21T02:52:46;34.10;;;19.43;;
20441;SDS011;10380;52.102;20.614;2023-11-21T02:55:14;32.80;;;18.17;;
20441;SDS011;10380;52.102;20.614;2023-11-21T02:57:41;29.33;;;16.40;;
20441;SDS011;10380;52.102;20.614;2023-11-21T03:00:08;29.90;;;17.90;;
20441;SDS011;10380;52.102;20.614;2023-11-21T03:02:41;29.23;;;17.37;;
20441;SDS011;10380;52.102;20.614;2023-11-21T03:05:10;30.93;;;17.07;;
20441;SDS011;10380;52.102;20.614;2023-11-21T03:07:37;29.40;;;16.40;;
20441;SDS011;10380;52.102;20.614;2023-11-21T03:10:06;26.50;;;16.30;;
20441;SDS011;10380;52.102;20.614;2023-11-21T03:12:39;26.53;;;15.50;;
20441;SDS011;10380;52.102;20.614;2023-11-21T03:15:07;25.73;;;15.47;;
20441;SDS011;10380;52.102;20.614;2023-11-21T03:17:35;28.57;;;16.73;;
20441;SDS011;10380;52.102;20.614;2023-11-21T03:20:04;28.47;;;15.93;;
20441;SDS011;10380;52.102;20.614;2023-11-21T03:22:32;24.40;;;15.57;;
20441;SDS011;10380;52.102;20.614;2023-11-21T03:25:00;28.00;;;16.40;;
20441;SDS011;10380;52.102;20.614;2023-11-21T03:27:27;27.97;;;15.53;;
20441;SDS011;10380;52.102;20.614;2023-11-21T03:29:54;29.60;;;16.73;;
20441;SDS011;10380;52.102;20.614;2023-11-21T03:32:21;33.07;;;18.23;;
20441;SDS011;10380;52.102;20.614;2023-11-21T03:34:55;28.10;;;16.53;;
20441;SDS011;10380;52.102;20.614;2023-11-21T03:37:25;28.60;;;16.13;;
20441;SDS011;10380;52.102;20.614;2023-11-21T03:39:54;27.90;;;15.03;;
20441;SDS011;10380;52.102;20.614;2023-11-21T03:42:23;27.70;;;16.27;;
20441;SDS011;10380;52.102;20.614;2023-11-21T03:44:53;25.47;;;14.90;;
20441;SDS011;10380;52.102;20.614;2023-11-21T03:47:20;27.73;;;15.70;;
20441;SDS011;10380;52.102;20.614;2023-11-21T03:49:47;27.93;;;15.70;;
20441;SDS011;10380;52.102;20.614;2023-11-21T03:52:15;25.73;;;15.30;;
20441;SDS011;10380;52.102;20.614;2023-11-21T03:54:43;25.50;;;14.37;;
20441;SDS011;10380;52.102;20.614;2023-11-21T03:57:10;18.97;;;13.50;;
20441;SDS011;10380;52.102;20.614;2023-11-21T03:59:41;23.20;;;14.73;;
20441;SDS011;10380;52.102;20.614;2023-11-21T04:02:09;22.77;;;14.60;;
20441;SDS011;10380;52.102;20.614;2023-11-21T04:04:36;22.37;;;14.70;;
20441;SDS011;10380;52.102;20.614;2023-11-21T04:07:03;19.20;;;13.27;;
20441;SDS011;10380;52.102;20.614;2023-11-21T04:09:31;21.13;;;13.20;;
20441;SDS011;10380;52.102;20.614;2023-11-21T04:11:58;20.53;;;13.23;;
20441;SDS011;10380;52.102;20.614;2023-11-21T04:14:25;19.77;;;13.93;;
20441;SDS011;10380;52.102;20.614;2023-11-21T04:16:52;19.73;;;13.60;;
20441;SDS011;10380;52.102;20.614;2023-11-21T04:19:21;21.37;;;13.87;;
20441;SDS011;10380;52.102;20.614;2023-11-21T04:21:48;20.93;;;13.97;;
20441;SDS011;10380;52.102;20.614;2023-11-21T04:24:15;19.90;;;13.30;;
20441;SDS011;10380;52.102;20.614;2023-11-21T04:26:43;19.33;;;13.13;;
20441;SDS011;10380;52.102;20.614;2023-11-21T04:29:11;22.50;;;14.33;;
20441;SDS011;10380;52.102;20.614;2023-11-21T04:31:38;18.10;;;12.23;;
20441;SDS011;10380;52.102;20.614;2023-11-21T04:34:06;20.93;;;12.97;;
20441;SDS011;10380;52.102;20.614;2023-11-21T04:36:34;19.73;;;13.20;;
20441;SDS011;10380;52.102;20.614;2023-11-21T04:39:02;18.17;;;12.70;;
20441;SDS011;10380;52.102;20.614;2023-11-21T04:41:29;20.27;;;13.53;;
20441;SDS011;10380;52.102;20.614;2023-11-21T04:43:59;19.30;;;12.90;;
20441;SDS011;10380;52.102;20.614;2023-11-21T04:46:29;19.50;;;13.97;;
20441;SDS011;10380;52.102;20.614;2023-11-21T04:48:56;20.30;;;14.23;;
20441;SDS011;10380;52.102;20.614;2023-11-21T04:51:23;19.27;;;13.10;;
20441;SDS011;10380;52.102;20.614;2023-11-21T04:53:51;23.67;;;13.80;;
20441;SDS011;10380;52.102;20.614;2023-11-21T04:56:18;20.43;;;14.00;;
20441;SDS011;10380;52.102;20.614;2023-11-21T04:58:45;21.17;;;13.37;;
20441;SDS011;10380;52.102;20.614;2023-11-21T05:01:12;19.13;;;13.33;;
20441;SDS011;10380;52.102;20.614;2023-11-21T05:03:39;17.17;;;11.97;;
20441;SDS011;10380;52.102;20.614;2023-11-21T05:06:09;18.13;;;12.47;;
20441;SDS011;10380;52.102;20.614;2023-11-21T05:08:36;20.17;;;13.07;;
20441;SDS011;10380;52.102;20.614;2023-11-21T05:11:04;18.73;;;12.60;;
20441;SDS011;10380;52.102;20.614;2023-11-21T05:13:33;18.93;;;13.13;;
20441;SDS011;10380;52.102;20.614;2023-11-21T05:16:01;18.17;;;11.60;;
20441;SDS011;10380;52.102;20.614;2023-11-21T05:18:30;16.17;;;11.37;;
20441;SDS011;10380;52.102;20.614;2023-11-21T05:20:57;15.67;;;11.57;;
20441;SDS011;10380;52.102;20.614;2023-11-21T05:23:24;15.47;;;10.20;;
20441;SDS011;10380;52.102;20.614;2023-11-21T05:25:51;16.40;;;11.50;;
20441;SDS011;10380;52.102;20.614;2023-11-21T05:28:18;17.67;;;11.73;;
20441;SDS011;10380;52.102;20.614;2023-11-21T05:30:46;17.30;;;11.63;;
20441;SDS011;10380;52.102;20.614;2023-11-21T05:33:13;20.40;;;13.00;;
20441;SDS011;10380;52.102;20.614;2023-11-21T05:35:40;17.73;;;12.17;;
20441;SDS011;10380;52.102;20.614;2023-11-21T05:38:07;20.37;;;12.10;;
20441;SDS011;10380;52.102;20.614;2023-11-21T05:40:34;15.70;;;10.43;;
20441;SDS011;10380;52.102;20.614;2023-11-21T05:43:01;17.67;;;10.80;;
20441;SDS011;10380;52.102;20.614;2023-11-21T05:45:28;19.83;;;12.93;;
20441;SDS011;10380;52.102;20.614;2023-11-21T05:47:57;17.87;;;11.70;;
20441;SDS011;10380;52.102;20.614;2023-11-21T05:50:25;16.97;;;11.87;;
20441;SDS011;10380;52.102;20.614;2023-11-21T05:52:52;17.10;;;11.50;;
20441;SDS011;10380;52.102;20.614;2023-11-21T05:55:19;14.10;;;10.27;;
20441;SDS011;10380;52.102;20.614;2023-11-21T05:57:52;16.23;;;11.20;;
20441;SDS011;10380;52.102;20.614;2023-11-21T06:00:19;13.40;;;10.10;;
20441;SDS011;10380;52.102;20.614;2023-11-21T06:02:52;16.43;;;10.50;;
20441;SDS011;10380;52.102;20.614;2023-11-21T06:05:22;15.07;;;10.00;;
20441;SDS011;10380;52.102;20.614;2023-11-21T06:07:52;14.77;;;9.73;;
20441;SDS011;10380;52.102;20.614;2023-11-21T06:10:21;15.47;;;10.33;;
20441;SDS011;10380;52.102;20.614;2023-11-21T06:12:51;14.30;;;10.10;;
20441;SDS011;10380;52.102;20.614;2023-11-21T06:15:19;13.67;;;9.77;;
20441;SDS011;10380;52.102;20.614;2023-11-21T06:17:48;15.80;;;11.17;;
20441;SDS011;10380;52.102;20.614;2023-11-21T06:20:16;17.23;;;11.07;;
20441;SDS011;10380;52.102;20.614;2023-11-21T06:22:46;15.30;;;10.87;;
20441;SDS011;10380;52.102;20.614;2023-11-21T06:25:15;13.90;;;10.13;;
20441;SDS011;10380;52.102;20.614;2023-11-21T06:27:44;17.03;;;10.50;;
20441;SDS011;10380;52.102;20.614;2023-11-21T06:30:14;17.97;;;11.53;;
20441;SDS011;10380;52.102;20.614;2023-11-21T06:32:42;18.07;;;11.17;;
20441;SDS011;10380;52.102;20.614;2023-11-21T06:35:16;20.03;;;12.13;;
20441;SDS011;10380;52.102;20.614;2023-11-21T06:37:44;18.37;;;12.23;;
20441;SDS011;10380;52.102;20.614;2023-11-21T06:40:16;17.37;;;11.90;;
20441;SDS011;10380;52.102;20.614;2023-11-21T06:42:48;16.77;;;11.60;;
20441;SDS011;10380;52.102;20.614;2023-11-21T06:45:16;16.40;;;12.33;;
20441;SDS011;10380;52.102;20.614;2023-11-21T06:47:43;19.30;;;12.30;;
20441;SDS011;10380;52.102;20.614;2023-11-21T06:50:11;21.60;;;11.40;;
20441;SDS011;10380;52.102;20.614;2023-11-21T06:52:38;18.97;;;12.57;;
20441;SDS011;10380;52.102;20.614;2023-11-21T06:55:05;18.73;;;12.47;;
20441;SDS011;10380;52.102;20.614;2023-11-21T06:57:35;19.97;;;12.00;;
20441;SDS011;10380;52.102;20.614;2023-11-21T07:00:02;18.60;;;11.83;;
20441;SDS011;10380;52.102;20.614;2023-11-21T07:02:30;18.20;;;11.87;;
20441;SDS011;10380;52.102;20.614;2023-11-21T07:04:58;17.33;;;10.87;;
20441;SDS011;10380;52.102;20.614;2023-11-21T07:07:25;16.97;;;11.20;;
20441;SDS011;10380;52.102;20.614;2023-11-21T07:09:59;18.13;;;11.37;;
20441;SDS011;10380;52.102;20.614;2023-11-21T07:12:30;17.10;;;11.33;;
20441;SDS011;10380;52.102;20.614;2023-11-21T07:15:00;18.63;;;11.03;;
20441;SDS011;10380;52.102;20.614;2023-11-21T07:17:29;18.77;;;11.90;;
20441;SDS011;10380;52.102;20.614;2023-11-21T07:19:56;16.13;;;10.90;;
20441;SDS011;10380;52.102;20.614;2023-11-21T07:22:23;18.47;;;11.43;;
20441;SDS011;10380;52.102;20.614;2023-11-21T07:24:51;15.90;;;10.90;;
20441;SDS011;10380;52.102;20.614;2023-11-21T07:27:18;18.10;;;12.93;;
20441;SDS011;10380;52.102;20.614;2023-11-21T07:29:46;19.47;;;11.17;;
20441;SDS011;10380;52.102;20.614;2023-11-21T07:32:15;16.10;;;11.00;;
20441;SDS011;10380;52.102;20.614;2023-11-21T07:34:42;16.23;;;11.20;;
20441;SDS011;10380;52.102;20.614;2023-11-21T07:37:09;16.97;;;12.00;;
20441;SDS011;10380;52.102;20.614;2023-11-21T07:39:36;16.50;;;11.63;;
20441;SDS011;10380;52.102;20.614;2023-11-21T07:42:03;17.67;;;11.43;;
20441;SDS011;10380;52.102;20.614;2023-11-21T07:44:31;16.27;;;11.67;;
20441;SDS011;10380;52.102;20.614;2023-11-21T07:46:58;17.77;;;12.17;;
20441;SDS011;10380;52.102;20.614;2023-11-21T07:49:25;16.30;;;11.70;;
20441;SDS011;10380;52.102;20.614;2023-11-21T07:51:53;17.17;;;11.37;;
20441;SDS011;10380;52.102;20.614;2023-11-21T07:54:20;17.93;;;12.87;;
20441;SDS011;10380;52.102;20.614;2023-11-21T07:56:47;16.07;;;11.10;;
20441;SDS011;10380;52.102;20.614;2023-11-21T07:59:14;17.10;;;11.63;;
20441;SDS011;10380;52.102;20.614;2023-11-21T08:01:42;15.87;;;11.63;;
20441;SDS011;10380;52.102;20.614;2023-11-21T08:04:10;20.77;;;12.40;;
20441;SDS011;10380;52.102;20.614;2023-11-21T08:06:37;20.07;;;12.70;;
20441;SDS011;10380;52.102;20.614;2023-11-21T08:09:04;16.37;;;11.20;;
20441;SDS011;10380;52.102;20.614;2023-11-21T08:11:31;21.00;;;13.13;;
20441;SDS011;10380;52.102;20.614;2023-11-21T08:13:59;15.83;;;10.83;;
20441;SDS011;10380;52.102;20.614;2023-11-21T08:16:26;21.83;;;13.37;;
20441;SDS011;10380;52.102;20.614;2023-11-21T08:18:54;15.70;;;10.53;;
20441;SDS011;10380;52.102;20.614;2023-11-21T08:21:21;15.23;;;10.57;;
20441;SDS011;10380;52.102;20.614;2023-11-21T08:23:51;17.93;;;11.43;;
20441;SDS011;10380;52.102;20.614;2023-11-21T08:26:21;17.70;;;11.00;;
20441;SDS011;10380;52.102;20.614;2023-11-21T08:28:49;15.03;;;11.23;;
20441;SDS011;10380;52.102;20.614;2023-11-21T08:31:16;16.53;;;11.23;;
20441;SDS011;10380;52.102;20.614;2023-11-21T08:33:43;15.53;;;10.77;;
20441;SDS011;10380;52.102;20.614;2023-11-21T08:36:10;16.20;;;11.13;;
20441;SDS011;10380;52.102;20.614;2023-11-21T08:38:38;16.17;;;11.33;;
20441;SDS011;10380;52.102;20.614;2023-11-21T08:41:06;18.27;;;10.40;;
20441;SDS011;10380;52.102;20.614;2023-11-21T08:43:34;18.37;;;10.47;;
20441;SDS011;10380;52.102;20.614;2023-11-21T08:46:02;14.03;;;9.83;;
20441;SDS011;10380;52.102;20.614;2023-11-21T08:48:29;13.40;;;10.17;;
20441;SDS011;10380;52.102;20.614;2023-11-21T08:50:56;16.40;;;11.10;;
20441;SDS011;10380;52.102;20.614;2023-11-21T08:53:24;14.40;;;11.07;;
20441;SDS011;10380;52.102;20.614;2023-11-21T08:55:52;14.57;;;10.43;;
20441;SDS011;10380;52.102;20.614;2023-11-21T08:58:20;14.70;;;10.07;;
20441;SDS011;10380;52.102;20.614;2023-11-21T09:00:48;15.60;;;10.70;;
20441;SDS011;10380;52.102;20.614;2023-11-21T09:03:15;17.00;;;10.60;;
20441;SDS011;10380;52.102;20.614;2023-11-21T09:05:42;19.53;;;11.90;;
20441;SDS011;10380;52.102;20.614;2023-11-21T09:08:09;16.97;;;10.13;;
20441;SDS011;10380;52.102;20.614;2023-11-21T09:10:36;17.37;;;11.10;;
20441;SDS011;10380;52.102;20.614;2023-11-21T09:13:04;14.83;;;10.77;;
20441;SDS011;10380;52.102;20.614;2023-11-21T09:15:31;18.10;;;11.43;;
20441;SDS011;10380;52.102;20.614;2023-11-21T09:17:57;16.93;;;11.13;;
20441;SDS011;10380;52.102;20.614;2023-11-21T09:20:25;16.63;;;11.07;;
20441;SDS011;10380;52.102;20.614;2023-11-21T09:22:52;15.67;;;11.23;;
20441;SDS011;10380;52.102;20.614;2023-11-21T09:25:20;14.37;;;9.77;;
20441;SDS011;10380;52.102;20.614;2023-11-21T09:27:48;16.47;;;10.33;;
20441;SDS011;10380;52.102;20.614;2023-11-21T09:30:15;14.57;;;9.50;;
20441;SDS011;10380;52.102;20.614;2023-11-21T09:32:42;20.03;;;11.67;;
20441;SDS011;10380;52.102;20.614;2023-11-21T09:35:12;14.53;;;9.17;;
20441;SDS011;10380;52.102;20.614;2023-11-21T09:37:41;14.63;;;10.50;;
20441;SDS011;10380;52.102;20.614;2023-11-21T09:40:10;14.07;;;10.90;;
20441;SDS011;10380;52.102;20.614;2023-11-21T09:42:48;18.60;;;10.60;;
20441;SDS011;10380;52.102;20.614;2023-11-21T09:45:28;18.90;;;11.47;;
20441;SDS011;10380;52.102;20.614;2023-11-21T09:48:01;19.23;;;11.83;;
20441;SDS011;10380;52.102;20.614;2023-11-21T09:50:28;19.07;;;12.00;;
20441;SDS011;10380;52.102;20.614;2023-11-21T09:55:48;18.27;;;14.40;;
20441;SDS011;10380;52.102;20.614;2023-11-21T09:58:18;18.70;;;13.33;;
20441;SDS011;10380;52.102;20.614;2023-11-21T10:00:47;19.87;;;12.63;;
20441;SDS011;10380;52.102;20.614;2023-11-21T10:03:19;22.63;;;12.97;;
20441;SDS011;10380;52.102;20.614;2023-11-21T10:05:46;19.27;;;12.97;;
20441;SDS011;10380;52.102;20.614;2023-11-21T10:08:16;19.87;;;13.10;;
20441;SDS011;10380;52.102;20.614;2023-11-21T10:10:46;16.90;;;12.23;;
20441;SDS011;10380;52.102;20.614;2023-11-21T10:13:17;20.83;;;14.40;;
20441;SDS011;10380;52.102;20.614;2023-11-21T10:15:52;21.20;;;13.47;;
20441;SDS011;10380;52.102;20.614;2023-11-21T10:18:19;21.90;;;12.80;;
20441;SDS011;10380;52.102;20.614;2023-11-21T10:20:48;24.40;;;14.43;;
20441;SDS011;10380;52.102;20.614;2023-11-21T10:23:23;21.63;;;14.90;;
20441;SDS011;10380;52.102;20.614;2023-11-21T10:25:52;21.63;;;15.07;;
20441;SDS011;10380;52.102;20.614;2023-11-21T10:28:20;21.53;;;13.53;;
20441;SDS011;10380;52.102;20.614;2023-11-21T10:30:48;22.63;;;14.33;;
20441;SDS011;10380;52.102;20.614;2023-11-21T10:33:15;20.00;;;13.67;;
20441;SDS011;10380;52.102;20.614;2023-11-21T10:35:46;23.57;;;15.13;;
20441;SDS011;10380;52.102;20.614;2023-11-21T10:38:18;19.63;;;14.17;;
20441;SDS011;10380;52.102;20.614;2023-11-21T10:40:47;24.87;;;15.10;;
20441;SDS011;10380;52.102;20.614;2023-11-21T10:43:17;20.17;;;13.60;;
20441;SDS011;10380;52.102;20.614;2023-11-21T10:45:45;23.33;;;13.03;;
20441;SDS011;10380;52.102;20.614;2023-11-21T10:48:13;25.87;;;14.50;;
20441;SDS011;10380;52.102;20.614;2023-11-21T10:50:45;21.07;;;13.60;;
20441;SDS011;10380;52.102;20.614;2023-11-21T10:53:13;22.23;;;13.83;;
20441;SDS011;10380;52.102;20.614;2023-11-21T10:55:40;24.17;;;14.50;;
20441;SDS011;10380;52.102;20.614;2023-11-21T10:58:10;19.63;;;13.50;;
20441;SDS011;10380;52.102;20.614;2023-11-21T11:00:39;21.53;;;12.90;;
20441;SDS011;10380;52.102;20.614;2023-11-21T11:03:07;22.87;;;14.90;;
20441;SDS011;10380;52.102;20.614;2023-11-21T11:05:43;20.73;;;14.87;;
20441;SDS011;10380;52.102;20.614;2023-11-21T11:08:29;21.50;;;14.23;;
20441;SDS011;10380;52.102;20.614;2023-11-21T11:10:56;22.37;;;15.53;;
20441;SDS011;10380;52.102;20.614;2023-11-21T11:13:25;21.73;;;14.33;;
20441;SDS011;10380;52.102;20.614;2023-11-21T11:15:56;20.83;;;14.03;;
20441;SDS011;10380;52.102;20.614;2023-11-21T11:18:33;24.17;;;15.43;;
20441;SDS011;10380;52.102;20.614;2023-11-21T11:26:52;20.43;;;13.97;;
20441;SDS011;10380;52.102;20.614;2023-11-21T11:29:48;22.27;;;14.00;;
20441;SDS011;10380;52.102;20.614;2023-11-21T11:35:10;21.80;;;14.23;;
20441;SDS011;10380;52.102;20.614;2023-11-21T11:37:43;21.93;;;13.00;;
20441;SDS011;10380;52.102;20.614;2023-11-21T11:40:11;22.67;;;13.40;;
20441;SDS011;10380;52.102;20.614;2023-11-21T11:42:38;18.67;;;13.73;;
20441;SDS011;10380;52.102;20.614;2023-11-21T11:45:19;21.20;;;13.70;;
20441;SDS011;10380;52.102;20.614;2023-11-21T11:47:47;24.20;;;13.77;;
20441;SDS011;10380;52.102;20.614;2023-11-21T11:50:14;23.03;;;13.87;;
20441;SDS011;10380;52.102;20.614;2023-11-21T11:52:47;24.37;;;14.57;;
20441;SDS011;10380;52.102;20.614;2023-11-21T11:55:17;20.50;;;14.23;;
20441;SDS011;10380;52.102;20.614;2023-11-21T12:00:33;19.93;;;12.33;;
20441;SDS011;10380;52.102;20.614;2023-11-21T12:03:04;23.00;;;14.20;;
20441;SDS011;10380;52.102;20.614;2023-11-21T12:05:35;24.10;;;15.07;;
20441;SDS011;10380;52.102;20.614;2023-11-21T12:08:06;22.87;;;15.30;;
20441;SDS011;10380;52.102;20.614;2023-11-21T12:10:34;26.10;;;14.77;;
20441;SDS011;10380;52.102;20.614;2023-11-21T12:13:05;22.97;;;13.90;;
20441;SDS011;10380;52.102;20.614;2023-11-21T12:15:37;22.20;;;14.10;;
20441;SDS011;10380;52.102;20.614;2023-11-21T12:18:06;25.77;;;14.67;;
20441;SDS011;10380;52.102;20.614;2023-11-21T12:20:33;24.03;;;15.00;;
20441;SDS011;10380;52.102;20.614;2023-11-21T12:23:06;26.37;;;16.30;;
20441;SDS011;10380;52.102;20.614;2023-11-21T12:25:36;23.93;;;15.17;;
20441;SDS011;10380;52.102;20.614;2023-11-21T12:28:08;25.13;;;15.73;;
20441;SDS011;10380;52.102;20.614;2023-11-21T12:30:36;25.20;;;15.13;;
20441;SDS011;10380;52.102;20.614;2023-11-21T12:33:05;24.57;;;15.43;;
20441;SDS011;10380;52.102;20.614;2023-11-21T12:35:34;26.67;;;15.87;;
20441;SDS011;10380;52.102;20.614;2023-11-21T12:38:02;24.47;;;15.23;;
20441;SDS011;10380;52.102;20.614;2023-11-21T12:40:31;22.67;;;15.10;;
20441;SDS011;10380;52.102;20.614;2023-11-21T12:42:58;27.47;;;16.60;;
20441;SDS011;10380;52.102;20.614;2023-11-21T12:45:27;28.47;;;16.40;;
20441;SDS011;10380;52.102;20.614;2023-11-21T12:48:02;29.03;;;16.97;;
20441;SDS011;10380;52.102;20.614;2023-11-21T12:50:35;28.57;;;16.63;;
20441;SDS011;10380;52.102;20.614;2023-11-21T12:53:03;24.63;;;16.27;;
20441;SDS011;10380;52.102;20.614;2023-11-21T12:55:32;23.73;;;15.93;;
20441;SDS011;10380;52.102;20.614;2023-11-21T12:58:05;25.20;;;14.70;;
20441;SDS011;10380;52.102;20.614;2023-11-21T13:00:42;28.10;;;15.47;;
20441;SDS011;10380;52.102;20.614;2023-11-21T13:03:11;24.90;;;15.60;;
20441;SDS011;10380;52.102;20.614;2023-11-21T13:05:43;31.60;;;17.50;;
20441;SDS011;10380;52.102;20.614;2023-11-21T13:08:14;30.07;;;17.97;;
20441;SDS011;10380;52.102;20.614;2023-11-21T13:10:46;25.27;;;17.47;;
20441;SDS011;10380;52.102;20.614;2023-11-21T13:13:16;32.67;;;17.57;;
20441;SDS011;10380;52.102;20.614;2023-11-21T13:18:19;26.50;;;16.17;;
20441;SDS011;10380;52.102;20.614;2023-11-21T13:20:48;27.90;;;16.37;;
20441;SDS011;10380;52.102;20.614;2023-11-21T13:23:16;25.43;;;16.47;;
20441;SDS011;10380;52.102;20.614;2023-11-21T13:25:44;28.10;;;16.37;;
20441;SDS011;10380;52.102;20.614;2023-11-21T13:28:23;27.10;;;15.80;;
20441;SDS011;10380;52.102;20.614;2023-11-21T13:30:53;26.10;;;15.97;;
20441;SDS011;10380;52.102;20.614;2023-11-21T13:33:20;22.37;;;13.67;;
20441;SDS011;10380;52.102;20.614;2023-11-21T13:35:54;23.73;;;15.57;;
20441;SDS011;10380;52.102;20.614;2023-11-21T13:38:23;26.30;;;15.70;;
20441;SDS011;10380;52.102;20.614;2023-11-21T13:40:53;29.63;;;16.57;;
20441;SDS011;10380;52.102;20.614;2023-11-21T13:43:23;23.33;;;14.40;;
20441;SDS011;10380;52.102;20.614;2023-11-21T13:45:52;24.07;;;15.60;;
20441;SDS011;10380;52.102;20.614;2023-11-21T13:48:40;31.70;;;17.43;;
20441;SDS011;10380;52.102;20.614;2023-11-21T13:51:09;28.20;;;17.67;;
20441;SDS011;10380;52.102;20.614;2023-11-21T13:53:47;29.70;;;18.03;;
20441;SDS011;10380;52.102;20.614;2023-11-21T13:56:17;28.07;;;17.17;;
20441;SDS011;10380;52.102;20.614;2023-11-21T13:58:51;28.70;;;18.20;;
20441;SDS011;10380;52.102;20.614;2023-11-21T14:01:19;26.57;;;17.37;;
20441;SDS011;10380;52.102;20.614;2023-11-21T14:04:00;33.37;;;20.37;;
20441;SDS011;10380;52.102;20.614;2023-11-21T14:06:43;28.07;;;16.57;;
20441;SDS011;10380;52.102;20.614;2023-11-21T14:09:16;27.20;;;17.10;;
20441;SDS011;10380;52.102;20.614;2023-11-21T14:11:55;24.23;;;16.83;;
20441;SDS011;10380;52.102;20.614;2023-11-21T14:14:24;31.87;;;18.10;;
20441;SDS011;10380;52.102;20.614;2023-11-21T14:16:54;25.60;;;17.40;;
20441;SDS011;10380;52.102;20.614;2023-11-21T14:19:25;25.43;;;17.00;;
20441;SDS011;10380;52.102;20.614;2023-11-21T14:21:58;25.50;;;14.00;;
20441;SDS011;10380;52.102;20.614;2023-11-21T14:24:25;28.13;;;17.17;;
20441;SDS011;10380;52.102;20.614;2023-11-21T14:26:52;20.83;;;13.63;;
20441;SDS011;10380;52.102;20.614;2023-11-21T14:29:20;23.93;;;16.10;;
20441;SDS011;10380;52.102;20.614;2023-11-21T14:31:49;26.50;;;17.50;;
20441;SDS011;10380;52.102;20.614;2023-11-21T14:34:18;25.40;;;16.67;;